Time;durP1;ratioP1;P1;durP2;ratioP2;P2;SDS_P1;SDS_P2;PMS_P1;PMS_P2;Temp;Humidity;BMP_temperature;BMP_pressure;BME280_temperature;BME280_humidity;BME280_pressure;Samples;Min_cycle;Max_cycle;Signal;HPM_P1;HPM_P2
2021/06/16 00:01:01;;;;;;;3.30;2.25;;;27.70;41.00;;;;;;6258280;28;20051;-75
2021/06/16 00:04:04;;;;;;;5.03;2.05;;;27.70;41.20;;;;;;6243638;28;20041;-75
2021/06/16 00:07:05;;;;;;;5.07;2.65;;;27.60;41.30;;;;;;6255594;28;20036;-76
2021/06/16 00:10:09;;;;;;;3.80;2.13;;;27.50;41.30;;;;;;6295424;28;20357;-74
2021/06/16 00:13:10;;;;;;;6.50;2.58;;;27.50;41.30;;;;;;6276482;28;20028;-75
2021/06/16 00:16:11;;;;;;;4.40;2.35;;;27.40;41.10;;;;;;6276869;28;20067;-74
2021/06/16 00:19:13;;;;;;;2.10;1.90;;;27.40;41.20;;;;;;6276464;28;20040;-75
2021/06/16 00:27:28;;;;;;;3.42;2.22;;;27.40;41.70;;;;;;6291809;28;20476;-75
2021/06/16 00:30:31;;;;;;;5.97;2.67;;;27.30;41.80;;;;;;6268759;28;20124;-75
2021/06/16 00:33:32;;;;;;;2.42;2.22;;;27.20;42.00;;;;;;6237494;28;20047;-76
2021/06/16 00:36:33;;;;;;;3.83;2.53;;;27.20;42.20;;;;;;6259736;28;20029;-75
2021/06/16 00:39:34;;;;;;;4.13;2.25;;;27.20;42.20;;;;;;6275393;28;20395;-75
2021/06/16 00:42:35;;;;;;;3.80;2.50;;;27.20;42.30;;;;;;6293151;28;20025;-76
2021/06/16 00:45:36;;;;;;;3.83;2.47;;;27.10;42.40;;;;;;6275844;28;20457;-75
2021/06/16 00:48:37;;;;;;;2.95;2.40;;;27.10;42.70;;;;;;6293251;28;20051;-76
2021/06/16 00:51:38;;;;;;;2.30;2.00;;;27.00;42.80;;;;;;6293320;28;20369;-75
2021/06/16 00:54:39;;;;;;;2.65;2.35;;;27.00;42.90;;;;;;6293332;28;20436;-75
2021/06/16 00:57:41;;;;;;;3.13;2.30;;;26.90;42.80;;;;;;6274267;28;20040;-75
2021/06/16 01:00:42;;;;;;;3.05;2.00;;;26.80;42.90;;;;;;6291272;28;20064;-76
2021/06/16 01:04:13;;;;;;;3.70;2.00;;;26.80;43.00;;;;;;6259321;28;20506;-75
2021/06/16 01:07:15;;;;;;;3.08;2.22;;;26.80;43.10;;;;;;6290919;28;20032;-74
2021/06/16 01:10:20;;;;;;;4.20;2.30;;;26.80;43.30;;;;;;6279650;28;20059;-75
2021/06/16 01:13:31;;;;;;;3.25;2.50;;;26.80;43.40;;;;;;6263728;28;20036;-75
2021/06/16 01:16:41;;;;;;;4.80;2.92;;;26.70;43.70;;;;;;6280240;28;20040;-75
2021/06/16 01:19:47;;;;;;;5.82;2.65;;;26.70;43.80;;;;;;6297035;28;20047;-76
2021/06/16 01:23:19;;;;;;;10.32;2.35;;;26.70;43.90;;;;;;6246938;28;20037;-76
2021/06/16 01:26:25;;;;;;;3.95;2.50;;;26.60;43.90;;;;;;6227932;28;20033;-75
2021/06/16 01:29:33;;;;;;;2.67;1.95;;;26.60;43.90;;;;;;6246504;28;20025;-76
2021/06/16 01:32:35;;;;;;;6.88;2.50;;;26.60;44.10;;;;;;6211190;28;20029;-75
2021/06/16 01:35:38;;;;;;;3.58;2.30;;;26.50;44.10;;;;;;6239175;28;20116;-78
2021/06/16 01:38:41;;;;;;;3.60;2.90;;;26.50;44.30;;;;;;6238177;28;20043;-75
2021/06/16 01:41:43;;;;;;;3.55;2.33;;;26.40;44.40;;;;;;6255598;28;20440;-75
2021/06/16 01:44:49;;;;;;;4.03;2.40;;;26.40;44.60;;;;;;6254753;28;20170;-75
2021/06/16 01:47:52;;;;;;;6.90;3.03;;;26.40;44.80;;;;;;6255010;28;20041;-75
2021/06/16 01:50:54;;;;;;;5.25;2.60;;;26.40;44.80;;;;;;6239223;28;20129;-75
2021/06/16 01:53:56;;;;;;;4.07;2.72;;;26.40;44.90;;;;;;6255731;28;20041;-75
2021/06/16 01:56:58;;;;;;;7.05;2.70;;;26.40;45.10;;;;;;6250912;28;20096;-75
2021/06/16 02:00:01;;;;;;;3.80;2.45;;;26.40;45.20;;;;;;6238973;28;20131;-75
2021/06/16 02:03:02;;;;;;;3.97;2.70;;;26.30;45.20;;;;;;6269165;28;20051;-75
2021/06/16 02:06:04;;;;;;;3.88;1.92;;;26.30;45.30;;;;;;6266009;28;20048;-75
2021/06/16 02:09:06;;;;;;;4.95;2.20;;;26.30;45.20;;;;;;6279695;28;20111;-75
2021/06/16 02:12:11;;;;;;;3.97;2.45;;;26.30;45.40;;;;;;6279997;28;20414;-76
2021/06/16 02:15:16;;;;;;;4.97;2.90;;;26.30;45.30;;;;;;6280483;28;20181;-76
2021/06/16 02:18:21;;;;;;;3.53;2.58;;;26.30;45.40;;;;;;6263520;28;20032;-76
2021/06/16 02:21:23;;;;;;;7.88;2.97;;;26.30;45.60;;;;;;6280046;28;20116;-76
2021/06/16 02:24:24;;;;;;;4.43;2.67;;;26.20;45.70;;;;;;6297756;28;20032;-75
2021/06/16 02:27:25;;;;;;;4.38;2.63;;;26.20;45.70;;;;;;6281290;28;20056;-77
2021/06/16 02:30:29;;;;;;;3.65;2.55;;;26.20;45.80;;;;;;6298027;28;20048;-76
2021/06/16 02:33:30;;;;;;;3.78;2.33;;;26.20;45.80;;;;;;6256141;28;20114;-75
2021/06/16 02:36:38;;;;;;;3.30;2.47;;;26.20;45.90;;;;;;6266612;28;20029;-75
2021/06/16 02:39:44;;;;;;;5.40;2.97;;;26.20;46.00;;;;;;6282019;28;20020;-75
2021/06/16 02:42:48;;;;;;;4.80;2.78;;;26.10;46.10;;;;;;6281542;28;20041;-75
2021/06/16 02:45:49;;;;;;;3.05;2.30;;;26.10;46.30;;;;;;6299285;28;20035;-76
2021/06/16 02:48:54;;;;;;;7.60;2.92;;;26.10;46.40;;;;;;6299538;28;20119;-76
2021/06/16 02:51:57;;;;;;;5.03;2.60;;;26.10;46.50;;;;;;6272294;28;20041;-76
2021/06/16 02:55:02;;;;;;;3.88;2.45;;;26.10;46.60;;;;;;6298888;28;20041;-75
2021/06/16 02:58:05;;;;;;;5.10;2.58;;;26.00;46.50;;;;;;6299327;28;20377;-74
2021/06/16 03:01:08;;;;;;;5.15;2.65;;;26.00;46.50;;;;;;6271674;28;20063;-76
2021/06/16 03:04:11;;;;;;;3.15;2.45;;;26.00;46.50;;;;;;6243780;28;20431;-76
2021/06/16 03:07:13;;;;;;;3.92;2.92;;;26.10;47.10;;;;;;6268896;28;20094;-76
2021/06/16 03:10:16;;;;;;;9.48;2.60;;;26.10;46.30;;;;;;6281073;28;20040;-76
2021/06/16 03:13:18;;;;;;;3.78;2.47;;;26.10;46.20;;;;;;6297963;28;20036;-76
2021/06/16 03:16:23;;;;;;;4.97;2.35;;;26.00;46.20;;;;;;6281028;28;20036;-77
2021/06/16 03:19:25;;;;;;;4.15;2.30;;;26.00;46.40;;;;;;6287626;28;20119;-74
2021/06/16 03:22:29;;;;;;;2.63;2.13;;;25.90;46.60;;;;;;6298642;28;20700;-74
2021/06/16 03:25:31;;;;;;;3.22;2.28;;;25.80;46.90;;;;;;6298452;28;20032;-76
2021/06/16 03:28:33;;;;;;;2.55;2.17;;;25.80;47.00;;;;;;6272467;28;20124;-75
2021/06/16 03:31:35;;;;;;;2.97;2.13;;;25.70;47.10;;;;;;6272426;28;20041;-76
2021/06/16 03:34:37;;;;;;;5.50;2.33;;;25.70;47.80;;;;;;6247837;28;20121;-75
2021/06/16 03:37:39;;;;;;;4.30;2.08;;;25.60;47.20;;;;;;6281130;28;20048;-75
2021/06/16 03:40:42;;;;;;;3.10;2.47;;;25.60;47.20;;;;;;6272391;28;20112;-75
2021/06/16 03:43:47;;;;;;;4.43;2.42;;;25.60;47.40;;;;;;6277721;28;20040;-75
2021/06/16 03:46:50;;;;;;;4.50;2.55;;;25.60;47.60;;;;;;6231669;28;20041;-75
2021/06/16 03:49:52;;;;;;;4.18;2.40;;;25.60;47.60;;;;;;6247523;28;20540;-75
2021/06/16 03:52:57;;;;;;;3.38;2.30;;;25.60;47.70;;;;;;6247500;28;20041;-75
2021/06/16 03:56:00;;;;;;;5.93;2.67;;;25.50;47.70;;;;;;6230012;28;20477;-75
2021/06/16 03:59:01;;;;;;;5.25;2.67;;;25.50;47.70;;;;;;6230700;28;20038;-76
2021/06/16 04:02:03;;;;;;;8.20;2.50;;;25.50;47.80;;;;;;6246630;28;20135;-76
2021/06/16 04:05:08;;;;;;;4.63;3.03;;;25.40;47.90;;;;;;6230771;28;20049;-76
2021/06/16 04:08:37;;;;;;;3.92;2.53;;;25.40;47.90;;;;;;6259823;28;20065;-76
2021/06/16 04:11:40;;;;;;;4.50;2.45;;;25.30;48.00;;;;;;6270040;28;20040;-76
2021/06/16 04:14:41;;;;;;;3.95;2.63;;;25.30;48.10;;;;;;6252852;28;20120;-76
2021/06/16 04:17:46;;;;;;;7.72;2.78;;;25.30;48.30;;;;;;6269338;28;20040;-75
2021/06/16 04:20:47;;;;;;;11.35;3.00;;;25.30;48.50;;;;;;6268602;28;20129;-75
2021/06/16 04:23:50;;;;;;;5.28;2.60;;;25.30;48.70;;;;;;6251593;28;20042;-75
2021/06/16 04:26:51;;;;;;;10.20;2.75;;;25.30;49.00;;;;;;6252750;28;20048;-75
2021/06/16 04:29:52;;;;;;;6.97;2.58;;;25.20;49.20;;;;;;6271921;28;20078;-75
2021/06/16 04:32:54;;;;;;;3.97;2.72;;;25.10;49.30;;;;;;6258934;28;20113;-75
2021/06/16 04:35:55;;;;;;;4.93;3.13;;;25.10;49.40;;;;;;6269021;28;20105;-75
2021/06/16 04:38:56;;;;;;;3.83;2.70;;;25.10;49.50;;;;;;6266240;28;20357;-75
2021/06/16 04:41:57;;;;;;;5.90;2.45;;;25.00;49.50;;;;;;6278753;28;20033;-75
2021/06/16 04:44:58;;;;;;;5.93;3.25;;;25.10;49.50;;;;;;6283852;28;20125;-75
2021/06/16 04:47:59;;;;;;;7.10;3.92;;;25.10;49.80;;;;;;6299368;28;20036;-75
2021/06/16 04:51:00;;;;;;;4.55;2.58;;;25.10;50.00;;;;;;6296613;28;20091;-75
2021/06/16 04:54:01;;;;;;;5.30;3.20;;;25.10;50.00;;;;;;6298616;28;20131;-75
2021/06/16 04:57:06;;;;;;;5.35;3.17;;;25.00;50.10;;;;;;6281115;28;20036;-74
2021/06/16 05:00:09;;;;;;;5.85;3.17;;;25.10;50.10;;;;;;6299357;28;20036;-75
2021/06/16 05:03:10;;;;;;;4.95;3.28;;;25.10;50.10;;;;;;6268617;28;20041;-74
2021/06/16 05:06:11;;;;;;;9.45;5.00;;;25.20;50.10;;;;;;6274078;28;20362;-74
2021/06/16 05:09:12;;;;;;;5.97;3.17;;;25.20;49.80;;;;;;6297846;28;20056;-75
2021/06/16 05:12:13;;;;;;;5.70;3.33;;;25.20;49.60;;;;;;6297747;28;20420;-76
2021/06/16 05:15:15;;;;;;;6.25;3.70;;;25.30;49.50;;;;;;6279487;28;20465;-76
2021/06/16 05:18:17;;;;;;;5.40;3.25;;;25.30;49.40;;;;;;6297321;28;20028;-75
2021/06/16 05:21:18;;;;;;;31.77;5.35;;;25.40;49.20;;;;;;6280813;28;20024;-75
2021/06/16 05:24:20;;;;;;;4.85;3.25;;;25.40;48.90;;;;;;6297339;28;20128;-76
2021/06/16 05:27:21;;;;;;;12.68;3.67;;;25.40;48.60;;;;;;6297564;28;20048;-75
2021/06/16 05:30:22;;;;;;;6.68;3.25;;;25.40;48.50;;;;;;6279710;28;20111;-75
2021/06/16 05:33:23;;;;;;;10.02;3.28;;;25.50;48.50;;;;;;6282666;28;20124;-75
2021/06/16 05:36:25;;;;;;;6.03;3.40;;;25.50;48.40;;;;;;6272138;28;20354;-76
2021/06/16 05:39:26;;;;;;;5.72;3.38;;;25.40;48.50;;;;;;6273098;28;20048;-75
2021/06/16 05:42:27;;;;;;;7.85;4.28;;;25.40;48.60;;;;;;6255900;28;20033;-75
2021/06/16 05:45:28;;;;;;;5.63;3.65;;;25.40;48.60;;;;;;6255546;28;20036;-75
2021/06/16 05:48:29;;;;;;;9.95;3.72;;;25.40;48.60;;;;;;6262037;28;20056;-75
2021/06/16 05:51:30;;;;;;;8.13;3.55;;;25.40;48.60;;;;;;6255379;28;20071;-76
2021/06/16 05:54:32;;;;;;;4.43;3.20;;;25.40;48.60;;;;;;6265660;28;20464;-75
2021/06/16 05:57:33;;;;;;;4.80;3.42;;;25.50;48.60;;;;;;6279356;28;20044;-77
2021/06/16 06:00:34;;;;;;;6.78;3.40;;;25.50;48.60;;;;;;6297550;28;20036;-75
2021/06/16 06:03:36;;;;;;;10.10;3.58;;;25.50;48.50;;;;;;6263207;28;20441;-77
2021/06/16 06:06:37;;;;;;;10.20;3.80;;;25.60;48.50;;;;;;6273921;28;20047;-76
2021/06/16 06:09:38;;;;;;;36.60;4.68;;;25.60;48.40;;;;;;6279762;28;20025;-77
2021/06/16 06:12:40;;;;;;;13.70;3.55;;;25.70;48.30;;;;;;6279489;28;20032;-77
2021/06/16 06:15:41;;;;;;;18.15;3.42;;;25.80;48.20;;;;;;6279464;28;20111;-76
2021/06/16 06:18:43;;;;;;;9.25;3.60;;;25.90;48.10;;;;;;6270193;28;20036;-76
2021/06/16 06:21:44;;;;;;;8.80;3.33;;;26.00;47.90;;;;;;6279300;28;20036;-76
2021/06/16 06:24:45;;;;;;;6.63;3.85;;;26.20;47.80;;;;;;6255783;28;20043;-76
2021/06/16 06:27:46;;;;;;;4.82;3.20;;;26.30;47.60;;;;;;6252684;28;20048;-75
2021/06/16 06:30:47;;;;;;;12.80;4.10;;;26.40;47.40;;;;;;6253961;28;20037;-75
2021/06/16 06:33:48;;;;;;;12.55;3.63;;;26.50;47.20;;;;;;6254331;28;20045;-76
2021/06/16 06:36:49;;;;;;;9.43;4.10;;;26.50;47.10;;;;;;6270468;28;20072;-75
2021/06/16 06:39:53;;;;;;;11.00;3.65;;;26.60;47.10;;;;;;6261996;28;20036;-76
2021/06/16 06:42:54;;;;;;;10.00;4.00;;;26.60;46.90;;;;;;6277475;28;20028;-75
2021/06/16 06:45:54;;;;;;;7.95;3.78;;;26.80;46.80;;;;;;6278541;28;20032;-76
2021/06/16 06:48:55;;;;;;;15.48;4.82;;;26.90;46.60;;;;;;6277822;28;20063;-75
2021/06/16 06:51:56;;;;;;;13.25;7.13;;;27.10;46.40;;;;;;6277124;28;20025;-76
2021/06/16 06:54:58;;;;;;;5.43;3.47;;;27.20;46.00;;;;;;6294245;28;20470;-75
2021/06/16 06:57:59;;;;;;;5.55;3.35;;;27.30;45.70;;;;;;6277818;28;20423;-76
2021/06/16 07:01:00;;;;;;;10.02;4.20;;;27.40;45.30;;;;;;6295018;28;20358;-75
2021/06/16 07:04:01;;;;;;;11.32;5.22;;;27.60;45.10;;;;;;6257823;28;20063;-76
2021/06/16 07:07:03;;;;;;;11.40;4.20;;;27.70;44.90;;;;;;6273173;28;20037;-75
2021/06/16 07:10:05;;;;;;;19.20;4.38;;;27.80;44.70;;;;;;6277922;28;20066;-76
2021/06/16 07:13:06;;;;;;;14.55;5.53;;;28.00;44.50;;;;;;6294877;28;20062;-76
2021/06/16 07:16:07;;;;;;;15.65;3.42;;;28.00;44.10;;;;;;6294748;28;20036;-76
2021/06/16 07:19:09;;;;;;;9.45;3.78;;;28.20;43.90;;;;;;6278252;28;20349;-76
2021/06/16 07:22:10;;;;;;;5.30;2.95;;;28.30;43.80;;;;;;6277518;28;20059;-75
2021/06/16 07:25:11;;;;;;;19.45;5.13;;;28.40;43.60;;;;;;6295795;28;20056;-76
2021/06/16 07:28:12;;;;;;;8.90;3.47;;;28.50;43.40;;;;;;6276811;28;20048;-76
2021/06/16 07:31:13;;;;;;;9.60;3.20;;;28.70;43.30;;;;;;6276898;28;20114;-76
2021/06/16 07:34:14;;;;;;;8.20;3.55;;;28.90;43.10;;;;;;6247496;28;20446;-75
2021/06/16 07:37:17;;;;;;;9.63;3.20;;;29.00;42.70;;;;;;6256569;28;20028;-76
2021/06/16 07:40:18;;;;;;;5.28;3.30;;;29.10;42.40;;;;;;6275982;28;20035;-75
2021/06/16 07:43:19;;;;;;;5.10;3.08;;;29.30;42.30;;;;;;6284068;28;20050;-77
2021/06/16 07:46:20;;;;;;;9.10;4.28;;;29.40;42.10;;;;;;6276966;28;20024;-76
2021/06/16 07:49:22;;;;;;;7.68;3.63;;;29.50;42.00;;;;;;6277076;28;20044;-76
2021/06/16 07:52:23;;;;;;;7.78;3.28;;;29.60;41.80;;;;;;6294199;28;20212;-76
2021/06/16 07:55:25;;;;;;;6.45;3.05;;;29.80;41.50;;;;;;6267506;28;20456;-76
2021/06/16 07:58:26;;;;;;;5.57;2.90;;;29.80;41.10;;;;;;6273801;28;20056;-76
2021/06/16 08:01:27;;;;;;;11.88;2.97;;;30.00;40.80;;;;;;6268899;28;20044;-76
2021/06/16 08:04:28;;;;;;;7.00;2.72;;;30.10;40.40;;;;;;6244026;28;20509;-76
2021/06/16 08:07:29;;;;;;;6.03;2.70;;;30.10;40.20;;;;;;6272789;28;20093;-75
2021/06/16 08:10:31;;;;;;;3.50;2.97;;;30.20;39.90;;;;;;6276857;28;20028;-75
2021/06/16 08:13:32;;;;;;;4.00;2.92;;;30.30;39.50;;;;;;6276531;28;20453;-75
2021/06/16 08:16:33;;;;;;;7.90;3.47;;;30.30;39.40;;;;;;6276247;28;20464;-76
2021/06/16 08:19:35;;;;;;;13.57;3.42;;;30.40;39.30;;;;;;6297543;28;20024;-76
2021/06/16 08:22:37;;;;;;;15.43;4.30;;;30.50;39.20;;;;;;6271617;28;20064;-76
2021/06/16 08:25:38;;;;;;;8.18;2.83;;;30.50;39.00;;;;;;6281081;28;20031;-76
2021/06/16 08:28:40;;;;;;;5.22;2.65;;;30.60;38.70;;;;;;6279666;28;20031;-75
2021/06/16 08:31:41;;;;;;;5.85;3.13;;;30.60;38.60;;;;;;6280123;28;20039;-76
2021/06/16 08:34:42;;;;;;;9.35;3.20;;;30.70;38.60;;;;;;6247863;28;20030;-76
2021/06/16 08:37:43;;;;;;;4.22;3.13;;;30.90;38.50;;;;;;6247147;28;20034;-76
2021/06/16 08:40:44;;;;;;;12.27;3.25;;;31.00;38.20;;;;;;6280890;28;20040;-76
2021/06/16 08:43:47;;;;;;;3.28;2.53;;;31.20;38.00;;;;;;6264726;28;20033;-76
2021/06/16 08:46:50;;;;;;;5.05;2.70;;;31.40;37.60;;;;;;6299160;28;20033;-75
2021/06/16 08:49:53;;;;;;;13.55;3.45;;;31.50;37.10;;;;;;6299367;28;20495;-76
2021/06/16 08:52:54;;;;;;;12.82;3.47;;;31.50;36.90;;;;;;6282156;28;20039;-75
2021/06/16 08:55:55;;;;;;;11.13;3.33;;;31.60;36.90;;;;;;6283071;28;20226;-76
2021/06/16 08:58:56;;;;;;;9.55;2.88;;;31.70;36.70;;;;;;6264981;28;20475;-76
2021/06/16 09:01:57;;;;;;;3.97;2.92;;;31.80;36.30;;;;;;6295953;28;20047;-76
2021/06/16 09:04:59;;;;;;;5.40;2.90;;;31.70;36.00;;;;;;6263888;28;20063;-76
2021/06/16 09:08:03;;;;;;;10.55;3.28;;;31.70;36.00;;;;;;6233278;28;20041;-76
2021/06/16 09:11:04;;;;;;;6.85;2.95;;;31.80;35.80;;;;;;6250494;28;20033;-76
2021/06/16 09:14:25;;;;;;;6.32;2.75;;;31.90;35.50;;;;;;6250792;28;20025;-76
2021/06/16 09:17:26;;;;;;;8.20;3.85;;;31.90;35.40;;;;;;6255161;28;20052;-76
2021/06/16 09:20:28;;;;;;;7.07;3.08;;;32.10;35.40;;;;;;6262991;28;20082;-76
2021/06/16 09:23:29;;;;;;;5.22;2.95;;;32.20;35.30;;;;;;6258831;28;20033;-77
2021/06/16 09:26:35;;;;;;;5.32;2.90;;;32.20;35.30;;;;;;6252952;28;20120;-75
2021/06/16 09:29:36;;;;;;;4.18;2.80;;;32.30;35.10;;;;;;6274001;28;20366;-75
2021/06/16 09:32:43;;;;;;;10.93;3.15;;;32.40;34.80;;;;;;6256591;28;20079;-76
2021/06/16 09:35:49;;;;;;;6.78;2.60;;;32.40;34.40;;;;;;6255916;28;20029;-76
2021/06/16 09:38:53;;;;;;;10.18;3.45;;;32.40;34.40;;;;;;6254220;28;20063;-75
2021/06/16 09:41:55;;;;;;;13.85;3.33;;;32.50;34.50;;;;;;6255718;28;20044;-75
2021/06/16 09:45:00;;;;;;;11.65;3.78;;;32.50;34.40;;;;;;6270638;28;20032;-75
2021/06/16 09:48:21;;;;;;;4.80;3.40;;;32.60;34.20;;;;;;6255374;28;20068;-75
2021/06/16 09:51:24;;;;;;;12.23;2.83;;;32.70;34.10;;;;;;6255257;28;20116;-75
2021/06/16 09:54:37;;;;;;;4.20;3.00;;;32.80;33.80;;;;;;6272180;28;20025;-75
2021/06/16 09:58:05;;;;;;;3.38;2.85;;;32.80;33.70;;;;;;6247654;28;20066;-76
2021/06/16 10:01:06;;;;;;;11.30;2.90;;;32.90;33.60;;;;;;6279665;28;20028;-75
2021/06/16 10:04:08;;;;;;;4.82;2.88;;;33.00;33.50;;;;;;6258868;28;20029;-76
2021/06/16 10:07:18;;;;;;;7.40;2.90;;;33.00;33.30;;;;;;6248986;28;20508;-75
2021/06/16 10:10:19;;;;;;;7.00;3.80;;;33.00;33.20;;;;;;6259469;28;20089;-75
2021/06/16 10:13:21;;;;;;;5.28;3.03;;;33.10;33.10;;;;;;6245582;28;20033;-77
2021/06/16 10:16:23;;;;;;;6.13;3.35;;;33.10;33.10;;;;;;6274691;28;20446;-76
2021/06/16 10:19:25;;;;;;;6.03;3.17;;;33.20;33.10;;;;;;6272900;28;20098;-76
2021/06/16 10:22:27;;;;;;;9.20;4.13;;;33.20;33.00;;;;;;6255077;28;20441;-76
2021/06/16 10:25:28;;;;;;;7.70;3.42;;;33.30;32.90;;;;;;6255027;28;20029;-76
2021/06/16 10:28:41;;;;;;;5.25;3.67;;;33.30;33.30;;;;;;6255361;28;20049;-76
2021/06/16 10:31:43;;;;;;;24.75;4.22;;;33.30;33.50;;;;;;6272661;28;20029;-76
2021/06/16 10:34:57;;;;;;;31.15;4.15;;;33.40;33.60;;;;;;6248656;28;20188;-76
2021/06/16 10:38:17;;;;;;;46.22;4.53;;;33.50;33.70;;;;;;6247787;28;20048;-77
2021/06/16 10:41:38;;;;;;;67.60;5.60;;;33.50;34.20;;;;;;6259325;28;20434;-75
2021/06/16 10:44:39;;;;;;;39.38;4.40;;;33.60;33.50;;;;;;6277817;28;20044;-76
2021/06/16 10:48:00;;;;;;;36.75;4.90;;;33.70;33.30;;;;;;6278139;28;20140;-76
2021/06/16 10:51:02;;;;;;;4.88;2.75;;;33.70;33.30;;;;;;6296741;28;20048;-78
2021/06/16 10:54:30;;;;;;;3.97;2.80;;;33.80;33.20;;;;;;6296624;28;20038;-76
2021/06/16 10:57:34;;;;;;;13.20;3.20;;;33.80;33.30;;;;;;6259574;28;20441;-76
2021/06/16 11:00:37;;;;;;;27.85;3.08;;;33.80;33.20;;;;;;6279996;28;20660;-76
2021/06/16 11:03:47;;;;;;;8.38;3.17;;;33.90;33.20;;;;;;6261434;28;20116;-75
2021/06/16 11:06:48;;;;;;;5.63;3.15;;;34.10;33.00;;;;;;6254381;28;20039;-75
2021/06/16 11:09:54;;;;;;;7.97;2.88;;;35.30;31.50;;;;;;6266732;28;20025;-75
2021/06/16 11:12:55;;;;;;;7.45;2.40;;;36.50;29.80;;;;;;6278848;28;20036;-76
2021/06/16 11:15:56;;;;;;;5.03;2.20;;;37.50;28.30;;;;;;6295687;28;20058;-75
2021/06/16 11:19:24;;;;;;;4.78;2.20;;;38.10;27.10;;;;;;6261208;28;20119;-76
2021/06/16 11:22:31;;;;;;;4.90;2.30;;;38.80;26.30;;;;;;6277136;28;20028;-75
2021/06/16 11:25:41;;;;;;;2.15;1.95;;;39.40;25.70;;;;;;6276199;28;20055;-76
2021/06/16 11:28:42;;;;;;;4.90;2.00;;;39.90;25.10;;;;;;6276929;28;20096;-76
2021/06/16 11:32:11;;;;;;;3.47;2.17;;;40.40;24.40;;;;;;6292328;28;20028;-77
2021/06/16 11:35:39;;;;;;;9.43;2.25;;;41.10;24.00;;;;;;6224944;28;20457;-77
2021/06/16 11:38:52;;;;;;;6.07;2.20;;;41.80;23.10;;;;;;6222674;28;20062;-75
2021/06/16 11:41:54;;;;;;;6.25;2.28;;;42.20;22.60;;;;;;6275449;28;20052;-76
2021/06/16 11:44:56;;;;;;;11.27;2.28;;;42.40;22.00;;;;;;6273193;28;20029;-76
2021/06/16 11:47:59;;;;;;;2.95;1.75;;;42.70;21.40;;;;;;6273778;28;20044;-75
2021/06/16 11:51:01;;;;;;;32.97;3.05;;;42.90;21.30;;;;;;6257342;28;20029;-75
2021/06/16 11:54:19;;;;;;;2.97;2.08;;;43.10;21.30;;;;;;6291763;28;20029;-76
2021/06/16 11:57:26;;;;;;;8.88;2.22;;;43.40;21.20;;;;;;6273395;28;20036;-76
2021/06/16 12:00:28;;;;;;;2.58;2.00;;;43.30;20.90;;;;;;6275569;28;20032;-76
2021/06/16 12:03:29;;;;;;;4.35;1.90;;;43.10;20.80;;;;;;6251826;28;20022;-77
2021/06/16 12:06:30;;;;;;;3.13;2.10;;;43.10;20.80;;;;;;6242028;28;20025;-76
2021/06/16 12:09:46;;;;;;;9.90;2.80;;;42.90;20.80;;;;;;6239290;28;20145;-76
2021/06/16 12:12:56;;;;;;;18.20;3.45;;;42.80;21.30;;;;;;6269255;28;20075;-77
2021/06/16 12:15:57;;;;;;;18.67;2.58;;;42.90;21.50;;;;;;6268683;28;20032;-76
2021/06/16 12:19:11;;;;;;;3.63;2.03;;;43.00;21.60;;;;;;6251809;28;20029;-76
2021/06/16 12:22:12;;;;;;;5.07;2.42;;;43.10;21.70;;;;;;6268844;28;20112;-76
2021/06/16 12:25:31;;;;;;;4.10;2.17;;;43.10;21.60;;;;;;6289979;28;20104;-75
2021/06/16 12:28:39;;;;;;;3.88;2.28;;;43.30;21.10;;;;;;6275122;28;20119;-76
2021/06/16 12:31:47;;;;;;;2.63;2.13;;;43.40;20.60;;;;;;6293522;28;20032;-76
2021/06/16 12:35:27;;;;;;;5.20;2.13;;;43.60;20.30;;;;;;6252171;28;20330;-76
2021/06/16 12:38:48;;;;;;;2.70;1.98;;;43.60;19.90;;;;;;6232114;28;20385;-76
2021/06/16 12:41:50;;;;;;;5.60;2.45;;;43.40;20.10;;;;;;6249168;28;20321;-76
2021/06/16 12:44:51;;;;;;;3.75;2.40;;;43.20;20.00;;;;;;6223749;28;20036;-77
2021/06/16 12:47:54;;;;;;;5.43;2.10;;;43.20;20.10;;;;;;6266700;28;20095;-75
2021/06/16 12:51:03;;;;;;;10.82;2.40;;;43.40;20.00;;;;;;6250808;28;20114;-76
2021/06/16 12:54:04;;;;;;;2.60;1.98;;;43.60;19.70;;;;;;6265308;28;20033;-76
2021/06/16 12:57:11;;;;;;;4.93;2.05;;;43.90;19.20;;;;;;6267654;28;20024;-76
2021/06/16 13:00:14;;;;;;;2.60;2.00;;;44.10;18.90;;;;;;6267915;28;20033;-77
2021/06/16 13:03:24;;;;;;;5.57;2.05;;;44.20;19.00;;;;;;6251488;28;20094;-77
2021/06/16 13:06:25;;;;;;;6.65;2.03;;;44.30;18.90;;;;;;6270993;28;20261;-77
2021/06/16 13:09:26;;;;;;;9.25;2.17;;;44.70;18.90;;;;;;6276656;28;20032;-77
2021/06/16 13:12:29;;;;;;;2.83;2.45;;;45.00;18.60;;;;;;6281194;28;20092;-76
2021/06/16 13:15:39;;;;;;;2.88;1.88;;;45.40;18.30;;;;;;6280970;28;20433;-76
2021/06/16 13:18:40;;;;;;;8.13;2.30;;;45.70;17.90;;;;;;6280973;28;20470;-77
2021/06/16 13:21:59;;;;;;;3.97;1.90;;;46.00;17.60;;;;;;6298575;28;20039;-77
2021/06/16 13:25:02;;;;;;;2.40;2.08;;;46.50;17.30;;;;;;6280099;28;20024;-77
2021/06/16 13:28:03;;;;;;;2.38;1.92;;;47.10;16.90;;;;;;6280060;28;20083;-77
2021/06/16 13:31:15;;;;;;;5.90;2.15;;;47.70;16.50;;;;;;6297684;28;20029;-75
2021/06/16 13:34:17;;;;;;;5.72;2.10;;;48.20;16.30;;;;;;6258084;28;20100;-75
2021/06/16 13:37:18;;;;;;;8.73;2.08;;;48.60;16.00;;;;;;6256353;28;20025;-76
2021/06/16 13:40:19;;;;;;;4.03;3.13;;;49.00;15.90;;;;;;6254333;28;20495;-76
2021/06/16 13:43:20;;;;;;;11.85;3.17;;;49.50;15.60;;;;;;6224336;28;20442;-76
2021/06/16 13:46:21;;;;;;;9.52;2.40;;;50.00;15.60;;;;;;6276209;28;20055;-76
2021/06/16 13:49:22;;;;;;;3.50;2.00;;;50.40;15.40;;;;;;6266379;28;20043;-75
2021/06/16 13:52:23;;;;;;;16.73;2.70;;;50.60;15.20;;;;;;6273763;28;20067;-76
2021/06/16 13:55:25;;;;;;;4.57;2.00;;;50.90;14.90;;;;;;6256098;28;20029;-76
2021/06/16 13:58:27;;;;;;;3.35;2.20;;;51.10;14.50;;;;;;6238535;28;20067;-76
2021/06/16 14:01:30;;;;;;;7.68;2.20;;;51.50;14.40;;;;;;6254540;28;20025;-76
2021/06/16 14:04:34;;;;;;;4.70;2.30;;;51.60;14.20;;;;;;6255163;28;20339;-76
2021/06/16 14:07:36;;;;;;;7.22;2.10;;;52.10;13.90;;;;;;6254429;28;20108;-76
2021/06/16 14:10:37;;;;;;;2.78;2.30;;;52.30;13.80;;;;;;6264606;28;20028;-76
2021/06/16 14:13:38;;;;;;;3.13;2.10;;;52.30;13.70;;;;;;6246024;28;20117;-76
2021/06/16 14:16:39;;;;;;;6.93;2.55;;;52.60;13.70;;;;;;6253506;28;20025;-76
2021/06/16 14:19:41;;;;;;;7.15;2.35;;;52.90;13.50;;;;;;6254653;28;20116;-75
2021/06/16 14:22:47;;;;;;;2.13;1.85;;;53.20;13.60;;;;;;6254458;28;20346;-76
2021/06/16 14:25:48;;;;;;;8.38;2.30;;;53.10;13.30;;;;;;6272899;28;20021;-76
2021/06/16 14:28:51;;;;;;;3.65;2.28;;;53.10;13.20;;;;;;6254895;28;20515;-76
2021/06/16 14:31:52;;;;;;;5.07;2.28;;;53.00;13.10;;;;;;6271286;28;20032;-76
2021/06/16 14:34:53;;;;;;;2.92;2.30;;;52.80;13.40;;;;;;6272731;28;20025;-76
2021/06/16 14:37:54;;;;;;;3.95;1.85;;;52.70;13.40;;;;;;6272295;28;20419;-76
2021/06/16 14:40:55;;;;;;;11.77;2.20;;;52.70;13.20;;;;;;6271850;28;20029;-76
2021/06/16 14:43:56;;;;;;;4.40;2.20;;;52.30;13.20;;;;;;6255502;28;20040;-76
2021/06/16 14:46:57;;;;;;;2.53;1.95;;;51.60;13.60;;;;;;6256092;28;20052;-75
2021/06/16 14:49:58;;;;;;;3.72;2.33;;;51.20;13.70;;;;;;6239209;28;20033;-76
2021/06/16 14:52:59;;;;;;;5.00;2.13;;;50.90;13.90;;;;;;6271917;28;20488;-75
2021/06/16 14:56:02;;;;;;;6.30;2.08;;;49.40;14.60;;;;;;6254330;28;20092;-75
2021/06/16 14:59:03;;;;;;;2.40;2.20;;;47.40;15.60;;;;;;6273184;28;20124;-75
2021/06/16 15:02:05;;;;;;;7.57;2.22;;;45.40;16.80;;;;;;6254815;28;20167;-76
2021/06/16 15:05:06;;;;;;;3.40;2.03;;;43.60;18.00;;;;;;6245468;28;20113;-76
2021/06/16 15:08:08;;;;;;;6.03;2.38;;;42.20;19.00;;;;;;6254687;28;20398;-76
2021/06/16 15:11:08;;;;;;;4.10;2.20;;;41.20;20.00;;;;;;6270244;28;20082;-76
2021/06/16 15:14:09;;;;;;;5.25;3.05;;;40.30;20.90;;;;;;6254464;28;20029;-76
2021/06/16 15:17:11;;;;;;;4.53;2.47;;;39.60;21.80;;;;;;6254898;28;20350;-76
2021/06/16 15:20:14;;;;;;;3.05;2.47;;;39.00;22.30;;;;;;6271028;28;20029;-76
2021/06/16 15:23:15;;;;;;;6.57;3.00;;;38.50;22.40;;;;;;6271615;28;20083;-76
2021/06/16 15:26:16;;;;;;;4.40;2.90;;;38.10;23.20;;;;;;6254489;28;20384;-76
2021/06/16 15:29:18;;;;;;;3.97;2.75;;;37.70;23.70;;;;;;6271457;28;20501;-76
2021/06/16 15:32:19;;;;;;;4.03;2.55;;;37.30;24.30;;;;;;6253843;28;20450;-75
2021/06/16 15:35:23;;;;;;;4.80;2.85;;;37.10;24.40;;;;;;6254804;28;20120;-75
2021/06/16 15:38:24;;;;;;;3.55;2.65;;;36.80;24.50;;;;;;6270971;28;20187;-75
2021/06/16 15:41:25;;;;;;;7.13;3.53;;;36.60;25.10;;;;;;6275106;28;20465;-75
2021/06/16 15:44:26;;;;;;;9.63;2.90;;;36.40;26.00;;;;;;6296952;28;20362;-75
2021/06/16 15:47:28;;;;;;;2.17;1.98;;;36.20;25.40;;;;;;6279201;28;20052;-76
2021/06/16 15:50:30;;;;;;;3.42;2.80;;;36.10;25.40;;;;;;6279195;28;20036;-76
2021/06/16 15:53:31;;;;;;;3.42;2.35;;;36.10;25.50;;;;;;6279625;28;20109;-75
2021/06/16 15:56:32;;;;;;;5.95;2.78;;;35.90;25.40;;;;;;6280327;28;20131;-75
2021/06/16 15:59:33;;;;;;;5.45;2.70;;;36.00;25.40;;;;;;6278990;28;20438;-77